Delta Virtual Airport Information Service

Sharm el-Sheikh International Airport

ICAO: HESH Country: Egypt
Latitude: 27.9773 Longitude: 34.395
Latest Arrival : DAC6996 (FIMP-HESH) Latest Departure : DAC6996 (HESH-LFMN)


WX CaptureLIVE
Data provided by noaa.gov | Fetched at 08:59:43

METAR : HESH 041300Z 04006KT CAVOK 41/12 Q1003 NOSIG

TAF : HESH 041100Z 0412/0518 01008KT CAVOK


Runway Data for HESH
Data provided by openaviationdata.com

Runway ID Mag Var Hdg Length Elevation Surface ILS Freq ILS Id ILS Slope
04L 3 39° 10148 ft 143 ft Asphalt 109.5 KIL 3
04R 3 39° 10140 ft 143 ft Asphalt -- -- --
22L 3 219° 10140 ft 143 ft Asphalt -- -- --
22R 3 219° 10148 ft 143 ft Asphalt -- -- --

Sharm el-Sheikh International Airport, Egypt
Use only for reference purposes



Not for navigational purposes.